UBBN

Nakhchivan Airport

Nakhchivan, Azerbaijan
TAF UBBN 211701Z 2118/2218 14010KT 9999 FEW050 BKN100 TX33/2212Z TN15/2203Z PROB30 TEMPO 2118/2122 27016KT -TSRA SCT036 FEW040CB BKN090 TEMPO 2123/2204 06010KT TEMPO 2205/2210 VRB04KT NSC
Issued Valid From Valid To
Jun-21 @ 17:01 UTC
(an hour ago)
Jun-21 @ 18:00 UTC
(10 minutes ago)
Jun-22 @ 18:00 UTC
(in 24 hours)
Jun-21 @ 18:00 to Jun-22 @ 18:00
TAF UBBN 211701Z 2118/2218 14010KT 9999 FEW050 BKN100 TX33/2212Z TN15/2203Z
Wind Visibility Clouds
140° at 10 knots 10,000+ meters
  • Few at 5,000' AGL
  • Broken at 10,000' AGL
Temporary  (Probability 30%) Jun-21 @ 18:00 to Jun-21 @ 22:00
PROB30 TEMPO 2118/2122 27016KT -TSRA SCT036 FEW040CB BKN090
Wind Clouds Conditions
270° at 16 knots
  • Scattered at 3,600' AGL
  • Few at 4,000' AGL
  • Broken at 9,000' AGL
  • Light Thunderstorm
  • Light Rain
Temporary Jun-21 @ 23:00 to Jun-22 @ 04:00
TEMPO 2123/2204 06010KT
Wind
60° at 10 knots
Temporary Jun-22 @ 05:00 to Jun-22 @ 10:00
TEMPO 2205/2210 VRB04KT NSC
Wind Clouds
Variable at 4 knots
  • No significant clouds
TAF UBBN 211701Z 2118/2218 14010KT 9999 FEW050 BKN100 TX33/2212Z TN15/2203Z PROB30 TEMPO 2118/2122 27016KT -TSRA SCT036 FEW040CB BKN090 TEMPO 2123/2204 06010KT TEMPO 2205/2210 VRB04KT NSC
Issued Jun-21 @ 17:01 UTC
(an hour ago)
Valid From Jun-21 @ 18:00 UTC
(10 minutes ago)
Valid To Jun-22 @ 18:00 UTC
(in 24 hours)
Jun-21 @ 18:00 - Jun-22 @ 18:00
Wind Visibility
140° at 10 knots 10,000+ meters
Clouds
  • Few at 5,000' AGL
  • Broken at 10,000' AGL
Probability 30% Temporary Jun-21 @ 18:00 - Jun-21 @ 22:00
Wind
270° at 16 knots
Clouds
  • Scattered at 3,600' AGL
  • Few at 4,000' AGL
  • Broken at 9,000' AGL
Conditions
  • Light Thunderstorm
  • Light Rain
Temporary Jun-21 @ 23:00 - Jun-22 @ 04:00
Wind
60° at 10 knots
Temporary Jun-22 @ 05:00 - Jun-22 @ 10:00
Wind
Variable at 4 knots
Clouds
  • No significant clouds